createdAt,value
2022-12-18T00:00:19.707Z,11.80
2022-12-18T00:05:17.044Z,11.45
2022-12-18T00:10:15.362Z,11.60
2022-12-18T00:15:12.884Z,11.25
2022-12-18T00:20:10.558Z,11.60
2022-12-18T00:25:08.642Z,12.18
2022-12-18T00:30:06.558Z,11.45
2022-12-18T00:35:04.670Z,11.45
2022-12-18T00:40:02.099Z,11.15
2022-12-18T00:44:59.564Z,11.63
2022-12-18T00:49:56.943Z,12.52
2022-12-18T00:54:54.328Z,12.13
2022-12-18T00:59:51.508Z,11.95
2022-12-18T01:04:48.848Z,13.05
2022-12-18T01:09:49.286Z,12.43
2022-12-18T01:14:46.782Z,12.35
2022-12-18T01:19:44.209Z,11.95
2022-12-18T01:24:41.537Z,13.35
2022-12-18T01:29:38.722Z,12.50
2022-12-18T01:34:39.393Z,12.63
2022-12-18T01:39:36.709Z,13.00
2022-12-18T01:44:56.270Z,12.38
2022-12-18T01:49:55.285Z,12.82
2022-12-18T01:54:54.331Z,13.15
2022-12-18T01:59:55.034Z,13.15
2022-12-18T02:04:52.469Z,12.25
2022-12-18T02:10:13.073Z,12.45
2022-12-18T02:15:39.074Z,11.70
2022-12-18T02:21:10.742Z,12.60
2022-12-18T02:26:29.033Z,12.10
2022-12-18T02:31:31.269Z,10.85
2022-12-18T02:36:30.249Z,11.32
2022-12-18T02:41:27.942Z,12.32
2022-12-18T02:46:55.289Z,11.55
2022-12-18T02:52:03.235Z,10.98
2022-12-18T02:57:06.835Z,11.15
2022-12-18T03:02:43.361Z,12.25
2022-12-18T03:07:54.194Z,11.85
2022-12-18T03:13:16.445Z,10.85
2022-12-18T03:18:43.960Z,11.55
2022-12-18T03:23:51.377Z,12.65
2022-12-18T03:29:02.187Z,11.40
2022-12-18T03:34:05.229Z,12.07
2022-12-18T03:39:02.779Z,12.32
2022-12-18T03:44:12.063Z,12.23
2022-12-18T03:49:20.963Z,11.68
2022-12-18T03:54:19.375Z,11.80
2022-12-18T03:59:18.154Z,11.27
2022-12-18T04:04:17.973Z,11.43
2022-12-18T04:09:15.964Z,12.10
2022-12-18T04:14:18.293Z,12.20
2022-12-18T04:19:16.067Z,12.73
2022-12-18T04:24:13.368Z,11.68
2022-12-18T04:29:13.993Z,12.73
2022-12-18T04:34:11.626Z,13.25
2022-12-18T04:39:09.741Z,14.15
2022-12-18T04:44:09.656Z,12.32
2022-12-18T04:49:06.994Z,13.35
2022-12-18T04:54:04.481Z,14.40
2022-12-18T04:59:02.101Z,13.90
2022-12-18T05:04:02.061Z,13.90
2022-12-18T05:09:01.406Z,14.40
2022-12-18T05:13:59.477Z,12.55
2022-12-18T05:19:00.125Z,13.75
2022-12-18T05:23:58.172Z,12.75
2022-12-18T05:28:57.795Z,15.07
2022-12-18T05:33:55.313Z,14.27
2022-12-18T05:38:52.614Z,13.60
2022-12-18T05:43:49.831Z,13.43
2022-12-18T05:48:47.933Z,13.80
2022-12-18T05:53:45.555Z,13.73
2022-12-18T05:58:43.727Z,14.23
2022-12-18T06:03:41.431Z,16.42
2022-12-18T06:08:44.380Z,14.65
2022-12-18T06:13:43.373Z,13.85
2022-12-18T06:18:40.677Z,15.45
2022-12-18T06:23:38.360Z,14.93
2022-12-18T06:28:35.918Z,15.45
2022-12-18T06:33:35.181Z,15.00
2022-12-18T06:38:34.299Z,16.48
2022-12-18T06:43:31.591Z,14.18
2022-12-18T06:48:28.867Z,16.38
2022-12-18T06:53:27.031Z,14.95
2022-12-18T06:58:24.327Z,15.18
2022-12-18T07:03:21.694Z,15.13
2022-12-18T07:08:18.916Z,15.65
2022-12-18T07:13:17.494Z,16.23
2022-12-18T07:18:14.753Z,16.88
2022-12-18T07:23:15.365Z,17.30
2022-12-18T07:33:15.029Z,17.05
2022-12-18T07:38:12.200Z,18.35
2022-12-18T07:43:09.565Z,19.33
2022-12-18T07:48:06.798Z,18.30
2022-12-18T07:53:05.850Z,19.00
2022-12-18T07:58:04.272Z,17.08
2022-12-18T08:03:01.817Z,15.68
2022-12-18T08:07:59.821Z,15.75
2022-12-18T08:13:03.125Z,15.70
2022-12-18T08:18:02.653Z,16.75
2022-12-18T08:23:00.030Z,14.93
2022-12-18T08:27:57.954Z,14.75
2022-12-18T08:32:55.353Z,15.00
2022-12-18T08:37:53.524Z,15.25
2022-12-18T08:43:09.474Z,15.07
2022-12-18T08:48:07.004Z,14.23
2022-12-18T08:53:04.741Z,19.17
2022-12-18T08:58:02.345Z,18.20
2022-12-18T09:03:00.077Z,16.65
2022-12-18T09:07:57.696Z,16.40
2022-12-18T09:12:54.829Z,16.98
2022-12-18T09:17:53.963Z,15.57
2022-12-18T09:22:51.203Z,17.50
2022-12-18T09:27:49.319Z,14.75
2022-12-18T09:32:46.598Z,14.80
2022-12-18T09:37:44.218Z,15.18
2022-12-18T09:42:47.062Z,13.07
2022-12-18T09:47:46.390Z,13.15
2022-12-18T09:52:48.558Z,13.07
2022-12-18T09:57:54.297Z,13.30
2022-12-18T10:03:00.048Z,12.90
2022-12-18T10:08:03.741Z,14.13
2022-12-18T10:13:10.319Z,11.70
2022-12-18T10:18:48.894Z,12.70
2022-12-18T10:23:57.722Z,12.98
2022-12-18T10:28:56.943Z,12.98
2022-12-18T10:33:56.374Z,11.88
2022-12-18T10:38:55.293Z,12.13
2022-12-18T10:44:13.718Z,11.98
2022-12-18T10:49:27.212Z,12.40
2022-12-18T10:54:26.526Z,11.15
2022-12-18T10:59:24.333Z,12.18
2022-12-18T11:04:27.743Z,10.45
2022-12-18T11:09:36.473Z,11.07
2022-12-18T11:14:46.819Z,10.93
2022-12-18T11:19:44.869Z,11.18
2022-12-18T11:24:42.123Z,9.43
2022-12-18T11:29:46.360Z,10.73
2022-12-18T11:34:49.427Z,11.07
2022-12-18T11:39:54.138Z,10.45
2022-12-18T11:45:00.784Z,10.13
2022-12-18T11:50:02.445Z,10.40
2022-12-18T11:55:14.566Z,10.55
2022-12-18T12:00:25.049Z,12.52
2022-12-18T12:05:47.532Z,11.13
2022-12-18T12:11:24.251Z,11.55
2022-12-18T12:16:47.310Z,13.88
2022-12-18T12:21:54.994Z,12.40
2022-12-18T12:27:07.842Z,13.23
2022-12-18T12:32:17.186Z,10.77
2022-12-18T12:37:23.298Z,14.75
2022-12-18T12:42:43.874Z,14.18
2022-12-18T12:47:45.743Z,14.13
2022-12-18T12:52:50.689Z,12.13
2022-12-18T12:58:04.829Z,13.23
2022-12-18T13:03:17.948Z,12.77
2022-12-18T13:08:27.844Z,14.40
2022-12-18T13:13:52.906Z,13.77
2022-12-18T13:19:00.710Z,13.68
2022-12-18T13:24:15.376Z,14.82
2022-12-18T13:29:12.692Z,13.57
2022-12-18T13:34:34.674Z,13.93
2022-12-18T13:39:37.020Z,14.05
2022-12-18T13:44:40.853Z,14.25
2022-12-18T13:49:44.469Z,13.13
2022-12-18T13:54:44.146Z,15.43
2022-12-18T13:59:41.489Z,15.30
2022-12-18T14:04:41.656Z,11.50
2022-12-18T14:14:41.617Z,16.17
2022-12-18T14:24:40.564Z,15.48
2022-12-18T14:29:37.816Z,16.23
2022-12-18T14:34:35.109Z,15.85
2022-12-18T14:39:32.313Z,15.18
2022-12-18T14:44:39.111Z,15.93
2022-12-18T14:49:47.831Z,16.42
2022-12-18T14:54:48.398Z,14.85
2022-12-18T14:59:45.790Z,15.77
2022-12-18T15:04:44.896Z,14.90
2022-12-18T15:09:45.277Z,14.33
2022-12-18T15:14:43.237Z,18.20
2022-12-18T15:19:43.007Z,15.35
2022-12-18T15:24:40.562Z,17.23
2022-12-18T15:29:38.045Z,16.55
2022-12-18T15:34:35.485Z,20.45
2022-12-18T15:39:32.833Z,16.77
2022-12-18T15:44:30.687Z,17.85
2022-12-18T15:49:30.907Z,23.15
2022-12-18T15:54:47.180Z,18.42
2022-12-18T15:59:44.429Z,18.90
2022-12-18T16:04:41.831Z,16.83
2022-12-18T16:09:39.864Z,18.92
2022-12-18T16:14:43.403Z,15.75
2022-12-18T16:19:44.398Z,17.00
2022-12-18T16:24:43.892Z,16.30
2022-12-18T16:29:41.700Z,19.23
2022-12-18T16:34:39.106Z,29.88
2022-12-18T16:39:38.079Z,27.55
2022-12-18T16:44:36.149Z,16.80
2022-12-18T16:49:34.786Z,16.60
2022-12-18T16:54:33.796Z,18.23
2022-12-18T16:59:32.097Z,20.23
2022-12-18T17:04:29.786Z,22.58
2022-12-18T17:09:27.988Z,21.58
2022-12-18T17:14:26.983Z,22.58
2022-12-18T17:19:31.264Z,20.30
2022-12-18T17:24:33.069Z,18.83
2022-12-18T17:29:33.153Z,19.75
2022-12-18T17:34:30.805Z,18.58
2022-12-18T17:39:29.129Z,18.55
2022-12-18T17:44:27.136Z,17.15
2022-12-18T17:54:40.189Z,17.65
2022-12-18T17:59:40.706Z,17.75
2022-12-18T18:04:38.125Z,20.73
2022-12-18T18:09:35.332Z,18.63
2022-12-18T18:14:33.546Z,21.38
2022-12-18T18:19:31.346Z,17.95
2022-12-18T18:24:28.761Z,16.60
2022-12-18T18:29:29.031Z,16.33
2022-12-18T18:34:29.681Z,16.75
2022-12-18T18:39:27.292Z,17.85
2022-12-18T18:44:26.032Z,16.08
2022-12-18T18:49:27.187Z,17.00
2022-12-18T18:54:27.083Z,17.38
2022-12-18T18:59:31.725Z,19.75
2022-12-18T19:04:29.709Z,17.77
2022-12-18T19:09:26.999Z,18.15
2022-12-18T19:14:26.106Z,18.38
2022-12-18T19:19:23.699Z,18.00
2022-12-18T19:24:22.511Z,18.63
2022-12-18T19:29:20.316Z,20.27
2022-12-18T19:34:17.620Z,20.25
2022-12-18T19:39:18.264Z,20.85
2022-12-18T19:44:18.257Z,20.58
2022-12-18T19:49:18.247Z,20.95
2022-12-18T19:54:17.528Z,22.67
2022-12-18T19:59:17.923Z,21.90
2022-12-18T20:04:17.896Z,21.90
2022-12-18T20:14:20.640Z,18.52
2022-12-18T20:19:21.130Z,22.52
2022-12-18T20:24:21.307Z,19.23
2022-12-18T20:34:16.344Z,16.48
2022-12-18T20:39:18.091Z,18.40
2022-12-18T20:44:22.489Z,19.52
2022-12-18T20:49:20.638Z,16.17
2022-12-18T20:54:19.966Z,16.17
2022-12-18T20:59:18.135Z,16.02
2022-12-18T21:04:15.642Z,16.15
2022-12-18T21:09:16.287Z,15.77
2022-12-18T21:14:22.122Z,13.45
2022-12-18T21:19:23.378Z,16.55
2022-12-18T21:24:21.432Z,13.63
2022-12-18T21:29:24.253Z,15.10
2022-12-18T21:34:25.707Z,15.30
2022-12-18T21:39:24.248Z,14.25
2022-12-18T21:44:23.393Z,16.00
2022-12-18T21:49:21.560Z,17.00
2022-12-18T21:54:19.728Z,15.68
2022-12-18T21:59:23.056Z,16.42
2022-12-18T22:04:20.722Z,14.63
2022-12-18T22:09:21.346Z,15.90
2022-12-18T22:14:18.548Z,14.98
2022-12-18T22:19:17.099Z,15.85
2022-12-18T22:24:17.192Z,16.58
2022-12-18T22:29:35.901Z,16.38
2022-12-18T22:34:36.401Z,15.70
2022-12-18T22:39:34.114Z,13.77
2022-12-18T22:44:31.902Z,14.48
2022-12-18T22:49:29.322Z,12.70
2022-12-18T22:54:26.624Z,12.15
2022-12-18T22:59:24.129Z,12.52
2022-12-18T23:04:22.874Z,13.55
2022-12-18T23:09:22.704Z,13.15
2022-12-18T23:14:20.226Z,11.32
2022-12-18T23:19:17.536Z,11.43
2022-12-18T23:24:15.486Z,10.55
2022-12-18T23:29:13.339Z,11.13
2022-12-18T23:34:13.398Z,11.40
2022-12-18T23:39:12.365Z,10.70
2022-12-18T23:44:12.696Z,11.15
2022-12-18T23:49:10.258Z,11.55
2022-12-18T23:54:08.711Z,10.50
2022-12-18T23:59:06.061Z,12.23
